Time;durP1;ratioP1;P1;durP2;ratioP2;P2;SDS_P1;SDS_P2;PMS_P1;PMS_P2;Temp;Humidity;BMP_temperature;BMP_pressure;BME280_temperature;BME280_humidity;BME280_pressure;Samples;Min_cycle;Max_cycle;Signal;HPM_P1;HPM_P2
2022/01/27 00:01:10;;;;;;;75.47;46.60;;;;;;;;;;6214297;23;20088;-77
2022/01/27 00:04:00;;;;;;;75.07;44.97;;;;;;;;;;6214592;23;20003;-76
2022/01/27 00:06:22;;;;;;;76.18;48.05;;;;;;;;;;6213187;23;20313;-77
2022/01/27 00:08:55;;;;;;;94.40;57.20;;;;;;;;;;6214498;23;20013;-76
2022/01/27 00:11:21;;;;;;;107.95;64.78;;;;;;;;;;6187912;23;20058;-76
2022/01/27 00:14:00;;;;;;;93.10;56.88;;;;;;;;;;6214161;23;20003;-76
2022/01/27 00:16:29;;;;;;;89.80;51.70;;;;;;;;;;6187828;23;19996;-76
2022/01/27 00:18:55;;;;;;;87.00;49.53;;;;;;;;;;6214408;23;19999;-76
2022/01/27 00:21:23;;;;;;;73.78;43.17;;;;;;;;;;6187783;23;20001;-76
2022/01/27 00:23:49;;;;;;;87.05;48.97;;;;;;;;;;6187830;23;20420;-77
2022/01/27 00:26:16;;;;;;;99.78;52.70;;;;;;;;;;6214119;23;20458;-77
2022/01/27 00:28:43;;;;;;;104.13;57.95;;;;;;;;;;6213913;23;20013;-76
2022/01/27 00:31:09;;;;;;;95.28;55.05;;;;;;;;;;6214367;23;19993;-75
2022/01/27 00:33:36;;;;;;;78.75;48.60;;;;;;;;;;6187660;23;20435;-77
2022/01/27 00:36:02;;;;;;;84.68;49.83;;;;;;;;;;6187691;23;20021;-76
2022/01/27 00:38:29;;;;;;;82.63;46.58;;;;;;;;;;6187569;23;20007;-76
2022/01/27 00:40:55;;;;;;;75.47;46.60;;;;;;;;;;6187539;23;20001;-76
2022/01/27 00:43:21;;;;;;;73.03;42.95;;;;;;;;;;6187566;23;20042;-76
2022/01/27 00:45:47;;;;;;;74.00;43.45;;;;;;;;;;6187600;23;20328;-77
2022/01/27 00:48:15;;;;;;;72.95;43.85;;;;;;;;;;6187322;23;20092;-77
2022/01/27 00:50:41;;;;;;;66.20;37.75;;;;;;;;;;6187748;23;20055;-76
2022/01/27 00:53:24;;;;;;;78.25;46.50;;;;;;;;;;6214258;23;20063;-76
2022/01/27 00:55:51;;;;;;;67.55;40.90;;;;;;;;;;6214190;23;20003;-76
2022/01/27 01:00:52;;;;;;;68.60;42.97;;;;;;;;;;6214254;23;20432;-77
2022/01/27 01:03:27;;;;;;;69.25;40.30;;;;;;;;;;6187600;23;20001;-76
2022/01/27 01:14:29;;;;;;;89.57;49.58;;;;;;;;;;6215875;23;20015;-76
2022/01/27 01:19:12;;;;;;;74.72;43.78;;;;;;;;;;6216463;23;20004;-76
2022/01/27 01:32:48;;;;;;;;;;;;;;;;;;6208431;23;20004;-75
2022/01/27 01:35:14;;;;;;;76.75;41.92;;;;;;;;;;6216046;23;19900;-75
2022/01/27 01:37:42;;;;;;;73.15;42.10;;;;;;;;;;6215972;23;20004;-78
2022/01/27 01:40:11;;;;;;;73.72;45.10;;;;;;;;;;6189309;23;20012;-76
2022/01/27 01:42:37;;;;;;;83.75;46.80;;;;;;;;;;6189272;23;20001;-76
2022/01/27 01:45:08;;;;;;;73.63;46.72;;;;;;;;;;6189192;23;20007;-76
2022/01/27 01:47:34;;;;;;;80.07;48.30;;;;;;;;;;6215508;23;20023;-76
2022/01/27 01:50:00;;;;;;;78.75;47.65;;;;;;;;;;6189123;23;19996;-79
2022/01/27 01:52:26;;;;;;;78.13;47.42;;;;;;;;;;6215903;23;20100;-76
2022/01/27 01:54:54;;;;;;;95.18;51.50;;;;;;;;;;6189280;23;20001;-76
2022/01/27 01:57:20;;;;;;;86.88;50.10;;;;;;;;;;6189163;23;20005;-75
2022/01/27 01:59:46;;;;;;;76.88;44.85;;;;;;;;;;6215695;23;20022;-75
2022/01/27 02:02:13;;;;;;;88.28;50.28;;;;;;;;;;6188935;23;20004;-74
2022/01/27 02:04:39;;;;;;;79.85;42.53;;;;;;;;;;6215372;23;20003;-75
2022/01/27 02:07:14;;;;;;;77.10;45.17;;;;;;;;;;6188938;23;20466;-75
2022/01/27 02:20:26;;;;;;;80.57;48.90;;;;;;;;;;6214761;23;20036;-75
2022/01/27 02:22:52;;;;;;;92.70;53.03;;;;;;;;;;6187965;23;19996;-77
2022/01/27 02:25:18;;;;;;;95.03;56.92;;;;;;;;;;6214174;23;20413;-76
2022/01/27 02:27:45;;;;;;;90.72;49.92;;;;;;;;;;6215240;23;20013;-76
2022/01/27 02:30:11;;;;;;;84.45;51.85;;;;;;;;;;6215170;23;20008;-76
2022/01/27 02:32:37;;;;;;;93.28;53.28;;;;;;;;;;6187727;23;20775;-76
2022/01/27 02:35:05;;;;;;;79.15;45.83;;;;;;;;;;6215007;23;20003;-76
2022/01/27 02:37:31;;;;;;;84.68;49.00;;;;;;;;;;6188067;23;20004;-76
2022/01/27 02:39:57;;;;;;;77.10;48.60;;;;;;;;;;6188128;23;20012;-75
2022/01/27 02:42:27;;;;;;;79.15;50.13;;;;;;;;;;6188443;23;20000;-76
2022/01/27 02:44:57;;;;;;;87.43;48.53;;;;;;;;;;6188177;23;20024;-74
2022/01/27 02:47:25;;;;;;;83.88;50.85;;;;;;;;;;6187749;23;20044;-76
2022/01/27 02:49:51;;;;;;;94.03;54.10;;;;;;;;;;6214473;23;19997;-76
2022/01/27 02:52:17;;;;;;;96.85;57.53;;;;;;;;;;6187772;23;20000;-76
2022/01/27 02:54:44;;;;;;;92.38;55.08;;;;;;;;;;6187941;23;19997;-75
2022/01/27 02:57:10;;;;;;;96.55;58.92;;;;;;;;;;6188119;23;20007;-75
2022/01/27 02:59:36;;;;;;;101.07;58.30;;;;;;;;;;6188157;23;20004;-77
2022/01/27 03:02:02;;;;;;;85.50;52.63;;;;;;;;;;6188279;23;20447;-76
2022/01/27 03:04:30;;;;;;;84.80;53.72;;;;;;;;;;6188253;23;20001;-75
2022/01/27 03:06:56;;;;;;;84.68;51.30;;;;;;;;;;6187835;23;20039;-75
2022/01/27 03:09:23;;;;;;;79.47;50.22;;;;;;;;;;6214683;23;20005;-74
2022/01/27 03:11:57;;;;;;;86.68;52.50;;;;;;;;;;6214545;23;20451;-79
2022/01/27 03:14:23;;;;;;;90.40;54.80;;;;;;;;;;6187955;23;20047;-76
2022/01/27 03:16:52;;;;;;;84.82;55.10;;;;;;;;;;6214654;23;19996;-76
2022/01/27 03:19:19;;;;;;;83.82;52.75;;;;;;;;;;6187974;23;20003;-76
2022/01/27 03:21:45;;;;;;;80.90;48.47;;;;;;;;;;6214737;23;20096;-75
2022/01/27 03:24:11;;;;;;;104.78;59.67;;;;;;;;;;6214339;23;20072;-76
2022/01/27 03:26:37;;;;;;;92.40;55.63;;;;;;;;;;6188172;23;20007;-75
2022/01/27 03:29:04;;;;;;;83.45;50.17;;;;;;;;;;6187861;23;20013;-75
2022/01/27 03:31:30;;;;;;;82.57;46.35;;;;;;;;;;6214290;23;19993;-74
2022/01/27 03:33:56;;;;;;;78.63;45.63;;;;;;;;;;6188134;23;20001;-75
2022/01/27 03:36:23;;;;;;;81.65;46.42;;;;;;;;;;6214505;23;20305;-76
2022/01/27 03:38:49;;;;;;;72.65;43.58;;;;;;;;;;6187740;23;20024;-77
2022/01/27 03:41:20;;;;;;;69.68;42.60;;;;;;;;;;6214277;23;19996;-76
2022/01/27 03:43:46;;;;;;;72.05;43.20;;;;;;;;;;6214471;23;19993;-76
2022/01/27 03:46:12;;;;;;;67.20;42.33;;;;;;;;;;6214466;23;20028;-75
2022/01/27 03:48:38;;;;;;;69.72;41.50;;;;;;;;;;6187618;23;20012;-76
2022/01/27 03:51:05;;;;;;;73.82;44.20;;;;;;;;;;6187736;23;20054;-76
2022/01/27 03:53:31;;;;;;;84.55;50.00;;;;;;;;;;6187837;23;20031;-75
2022/01/27 03:55:58;;;;;;;75.75;46.50;;;;;;;;;;6187619;23;20426;-75
2022/01/27 03:58:24;;;;;;;80.50;48.80;;;;;;;;;;6214162;23;20007;-75
2022/01/27 04:00:50;;;;;;;84.63;47.35;;;;;;;;;;6214247;23;20000;-76
2022/01/27 04:03:18;;;;;;;78.80;46.28;;;;;;;;;;6214273;23;20424;-76
2022/01/27 04:05:51;;;;;;;71.85;42.95;;;;;;;;;;6214212;23;20008;-77
2022/01/27 04:08:17;;;;;;;72.95;44.45;;;;;;;;;;6213996;23;20009;-76
2022/01/27 04:10:44;;;;;;;76.47;44.03;;;;;;;;;;6214167;23;20063;-77
2022/01/27 04:13:10;;;;;;;80.32;45.30;;;;;;;;;;6214166;23;20005;-75
2022/01/27 04:15:37;;;;;;;85.43;46.03;;;;;;;;;;6187492;23;20005;-76
2022/01/27 04:18:03;;;;;;;78.18;42.83;;;;;;;;;;6187520;23;20431;-76
2022/01/27 04:20:29;;;;;;;79.63;47.00;;;;;;;;;;6186818;23;20055;-78
2022/01/27 04:22:55;;;;;;;76.43;46.33;;;;;;;;;;6213995;23;19999;-75
2022/01/27 04:25:22;;;;;;;78.15;48.25;;;;;;;;;;6187382;23;20001;-77
2022/01/27 04:27:55;;;;;;;67.45;42.05;;;;;;;;;;6213994;23;20008;-75
2022/01/27 04:30:24;;;;;;;72.00;42.50;;;;;;;;;;6214082;23;20000;-75
2022/01/27 04:32:54;;;;;;;71.75;44.97;;;;;;;;;;6187378;23;20075;-75
2022/01/27 04:35:22;;;;;;;70.32;42.22;;;;;;;;;;6187350;23;20024;-75
2022/01/27 04:40:31;;;;;;;84.40;51.75;;;;;;;;;;6214402;23;20017;-75
2022/01/27 04:45:29;;;;;;;91.00;51.60;;;;;;;;;;6214106;23;20035;-75
2022/01/27 04:48:05;;;;;;;83.47;49.15;;;;;;;;;;6186703;23;20495;-76
2022/01/27 04:50:31;;;;;;;81.30;49.22;;;;;;;;;;6187359;23;20000;-76
2022/01/27 04:52:59;;;;;;;83.60;48.13;;;;;;;;;;6187147;23;19996;-76
2022/01/27 04:55:25;;;;;;;93.75;56.30;;;;;;;;;;6213677;23;20000;-75
2022/01/27 04:58:05;;;;;;;54.08;32.67;;;;;;;;;;6213440;23;19997;-76
2022/01/27 05:00:31;;;;;;;73.93;42.50;;;;;;;;;;6186789;23;20329;-75
2022/01/27 05:02:59;;;;;;;64.75;39.25;;;;;;;;;;6213532;23;20450;-76
2022/01/27 05:05:26;;;;;;;81.43;48.50;;;;;;;;;;6186820;23;20000;-75
2022/01/27 05:08:16;;;;;;;54.20;35.03;;;;;;;;;;6213626;23;20013;-76
2022/01/27 05:10:40;;;;;;;62.70;37.28;;;;;;;;;;6212822;23;20015;-75
2022/01/27 05:13:11;;;;;;;51.65;33.08;;;;;;;;;;6186869;23;19997;-75
2022/01/27 05:15:43;;;;;;;60.35;39.28;;;;;;;;;;6187072;23;20440;-77
2022/01/27 05:18:09;;;;;;;72.90;47.20;;;;;;;;;;6213660;23;20000;-75
2022/01/27 05:20:35;;;;;;;63.05;40.13;;;;;;;;;;6213669;23;20000;-77
2022/01/27 05:23:01;;;;;;;59.70;37.25;;;;;;;;;;6213549;23;19992;-75
2022/01/27 05:25:27;;;;;;;64.85;40.72;;;;;;;;;;6213226;23;20328;-76
2022/01/27 05:27:53;;;;;;;74.70;46.55;;;;;;;;;;6186738;23;20016;-76
2022/01/27 05:30:19;;;;;;;107.05;66.57;;;;;;;;;;6187231;23;20009;-74
2022/01/27 05:32:45;;;;;;;117.47;73.03;;;;;;;;;;6187251;23;20331;-76
2022/01/27 05:35:11;;;;;;;125.13;75.65;;;;;;;;;;6186964;23;19997;-75
2022/01/27 05:37:37;;;;;;;110.20;65.95;;;;;;;;;;6187121;23;19996;-75
2022/01/27 05:40:04;;;;;;;107.10;68.57;;;;;;;;;;6187031;23;20007;-75
2022/01/27 05:42:30;;;;;;;96.38;62.50;;;;;;;;;;6213402;23;19993;-76
2022/01/27 05:44:56;;;;;;;100.53;60.00;;;;;;;;;;6213409;23;20024;-76
2022/01/27 05:47:22;;;;;;;97.10;60.40;;;;;;;;;;6186443;23;20051;-77
2022/01/27 05:49:48;;;;;;;103.40;61.38;;;;;;;;;;6213344;23;20000;-75
2022/01/27 05:52:14;;;;;;;102.18;59.80;;;;;;;;;;6213325;23;20071;-75
2022/01/27 05:54:42;;;;;;;99.13;59.22;;;;;;;;;;6213697;23;20001;-76
2022/01/27 05:57:08;;;;;;;99.80;61.33;;;;;;;;;;6213994;23;20075;-77
2022/01/27 05:59:34;;;;;;;102.90;61.28;;;;;;;;;;6215570;23;19997;-77
2022/01/27 06:02:00;;;;;;;99.40;61.33;;;;;;;;;;6188988;23;19996;-75
2022/01/27 06:04:26;;;;;;;99.22;59.08;;;;;;;;;;6188661;23;20000;-76
2022/01/27 06:06:56;;;;;;;106.53;67.05;;;;;;;;;;6215618;23;20003;-76
2022/01/27 06:09:22;;;;;;;114.88;70.68;;;;;;;;;;6215338;23;20341;-77
2022/01/27 06:11:48;;;;;;;132.75;78.20;;;;;;;;;;6187649;23;20066;-77
2022/01/27 06:14:14;;;;;;;120.53;69.10;;;;;;;;;;6215409;23;20408;-76
2022/01/27 06:16:40;;;;;;;114.97;68.47;;;;;;;;;;6215123;23;20066;-77
2022/01/27 06:19:07;;;;;;;95.85;57.95;;;;;;;;;;6189016;23;20001;-76
2022/01/27 06:21:35;;;;;;;103.90;61.38;;;;;;;;;;6215469;23;19996;-76
2022/01/27 06:24:01;;;;;;;96.88;56.83;;;;;;;;;;6188719;23;20015;-76
2022/01/27 06:26:29;;;;;;;95.15;56.22;;;;;;;;;;6215003;23;19997;-76
2022/01/27 06:28:56;;;;;;;97.90;59.38;;;;;;;;;;6215326;23;20428;-77
2022/01/27 06:31:22;;;;;;;94.10;55.60;;;;;;;;;;6215016;23;20424;-76
2022/01/27 06:33:48;;;;;;;92.97;57.03;;;;;;;;;;6186770;23;20439;-76
2022/01/27 06:36:14;;;;;;;81.05;49.67;;;;;;;;;;6212536;23;20055;-76
2022/01/27 06:38:40;;;;;;;126.82;68.25;;;;;;;;;;6212754;23;20432;-77
2022/01/27 06:41:06;;;;;;;113.95;61.13;;;;;;;;;;6213176;23;20333;-76
2022/01/27 06:43:32;;;;;;;113.97;62.13;;;;;;;;;;6213377;23;19992;-77
2022/01/27 06:45:58;;;;;;;130.18;66.07;;;;;;;;;;6187084;23;20004;-75
2022/01/27 06:48:24;;;;;;;139.32;81.78;;;;;;;;;;6214648;23;20024;-76
2022/01/27 06:50:54;;;;;;;132.18;77.95;;;;;;;;;;6214563;23;20067;-76
2022/01/27 06:53:20;;;;;;;151.07;89.20;;;;;;;;;;6215092;23;20373;-77
2022/01/27 06:55:47;;;;;;;171.73;98.00;;;;;;;;;;6188448;23;20079;-77
2022/01/27 06:58:13;;;;;;;209.95;128.27;;;;;;;;;;6214475;23;19999;-76
2022/01/27 07:00:39;;;;;;;167.55;101.90;;;;;;;;;;6188144;23;20005;-76
2022/01/27 07:03:05;;;;;;;128.60;74.95;;;;;;;;;;6187246;23;20001;-75
2022/01/27 07:05:32;;;;;;;114.28;65.10;;;;;;;;;;6214481;23;20047;-77
2022/01/27 07:07:58;;;;;;;127.85;79.68;;;;;;;;;;6188134;23;20087;-75
2022/01/27 07:10:24;;;;;;;136.52;83.00;;;;;;;;;;6214386;23;20428;-75
2022/01/27 07:12:50;;;;;;;127.47;77.57;;;;;;;;;;6214919;23;20003;-77
2022/01/27 07:15:16;;;;;;;105.30;64.32;;;76.80;2227.20;;;;;;6214588;23;20063;-75
2022/01/27 07:17:42;;;;;;;123.55;70.68;;;52.00;2227.20;;;;;;6214334;23;20016;-77
2022/01/27 07:20:08;;;;;;;90.45;59.85;;;52.10;2227.20;;;;;;6187965;23;20083;-76
2022/01/27 07:22:35;;;;;;;123.15;75.88;;;52.10;2227.20;;;;;;6188019;23;20004;-76
2022/01/27 07:25:04;;;;;;;115.90;68.70;;;52.10;2227.20;;;;;;6187937;23;20370;-76
2022/01/27 07:27:33;;;;;;;112.63;72.07;;;52.00;2227.20;;;;;;6213925;23;20071;-76
2022/01/27 07:30:01;;;;;;;108.57;67.72;;;52.00;2227.20;;;;;;6214527;23;19996;-75
2022/01/27 07:32:27;;;;;;;99.40;53.33;;;52.10;2227.20;;;;;;6183698;23;19997;-77
2022/01/27 07:34:53;;;;;;;91.93;53.30;;;52.10;2227.20;;;;;;6213638;23;19997;-76
2022/01/27 07:37:19;;;;;;;82.57;52.45;;;76.80;2227.20;;;;;;6212384;23;20001;-77
2022/01/27 07:39:45;;;;;;;80.38;48.17;;;76.80;2227.20;;;;;;6187162;23;20003;-76
2022/01/27 07:42:11;;;;;;;60.67;38.20;;;76.80;2227.20;;;;;;6187144;23;19997;-76
2022/01/27 07:44:36;;;;;;;49.78;31.42;;;76.80;2227.20;;;;;;6185588;23;20632;-76
2022/01/27 07:47:03;;;;;;;51.25;31.33;;;76.90;2227.20;;;;;;6186851;23;20448;-76
2022/01/27 07:49:29;;;;;;;46.15;26.80;;;76.90;2227.20;;;;;;6186195;23;20463;-75
2022/01/27 07:51:55;;;;;;;48.80;28.55;;;76.90;2227.20;;;;;;6213212;23;19997;-76
2022/01/27 07:54:20;;;;;;;46.88;29.23;;;77.00;2227.20;;;;;;6212994;23;20004;-76
2022/01/27 07:56:46;;;;;;;50.60;30.17;;;77.00;2227.20;;;;;;6212655;23;20023;-78
2022/01/27 07:59:12;;;;;;;44.13;26.85;;;77.10;2227.20;;;;;;6185577;23;20490;-78
2022/01/27 08:01:38;;;;;;;46.47;27.80;;;77.00;2227.20;;;;;;6185527;23;20459;-77
2022/01/27 08:04:04;;;;;;;50.70;29.45;;;77.10;2227.20;;;;;;6213085;23;19997;-75
2022/01/27 08:06:29;;;;;;;52.53;31.05;;;77.20;2227.20;;;;;;6185821;23;20328;-76
2022/01/27 08:08:55;;;;;;;53.72;31.55;;;77.20;2227.20;;;;;;6183767;23;20020;-76
2022/01/27 08:11:21;;;;;;;47.75;31.48;;;77.30;2227.20;;;;;;6186827;23;20454;-76
2022/01/27 08:13:47;;;;;;;42.90;25.67;;;77.50;2227.20;;;;;;6213827;23;20024;-78
2022/01/27 08:16:13;;;;;;;48.85;32.30;;;77.40;2227.20;;;;;;6186625;23;20027;-75
2022/01/27 08:18:39;;;;;;;54.00;31.33;;;77.30;2227.20;;;;;;6214035;23;20059;-76
2022/01/27 08:21:04;;;;;;;47.75;29.45;;;77.20;2227.20;;;;;;6213688;23;19997;-76
2022/01/27 08:23:30;;;;;;;42.88;25.92;;;77.40;2227.20;;;;;;6213870;23;20391;-76
2022/01/27 08:26:08;;;;;;;42.97;27.90;;;77.40;2227.20;;;;;;6213129;23;20004;-80
2022/01/27 08:28:49;;;;;;;38.92;22.85;;;77.30;2227.20;;;;;;6186693;23;20012;-76
2022/01/27 08:31:15;;;;;;;36.40;21.95;;;77.30;2227.20;;;;;;6187104;23;19996;-76
2022/01/27 08:33:41;;;;;;;54.35;27.48;;;77.30;2227.20;;;;;;6213359;23;20059;-77
2022/01/27 08:36:08;;;;;;;56.97;30.95;;;77.30;2227.20;;;;;;6187092;23;20008;-76
2022/01/27 08:38:36;;;;;;;48.75;28.95;;;77.40;2227.20;;;;;;6187138;23;20080;-76
2022/01/27 08:41:04;;;;;;;48.95;30.25;;;77.40;2227.20;;;;;;6214235;23;19992;-76
2022/01/27 08:43:30;;;;;;;49.42;30.40;;;77.40;2227.20;;;;;;6213799;23;20000;-75
2022/01/27 08:45:57;;;;;;;53.40;29.58;;;77.60;2227.20;;;;;;6212977;23;19999;-77
2022/01/27 08:48:23;;;;;;;44.92;27.25;;;102.40;2227.20;;;;;;6214309;23;20099;-76
2022/01/27 08:50:59;;;;;;;46.42;30.30;;;102.70;2227.20;;;;;;6187783;23;20055;-75
2022/01/27 08:53:26;;;;;;;41.97;27.00;;;;;;;;;;6214583;23;20003;-75
2022/01/27 08:55:52;;;;;;;45.25;27.05;;;;;;;;;;6214018;23;20000;-75
2022/01/27 08:58:18;;;;;;;47.70;26.80;;;;;;;;;;6213852;23;20047;-75
2022/01/27 09:00:44;;;;;;;51.75;29.52;;;;;;;;;;6211964;23;20454;-76
2022/01/27 09:03:10;;;;;;;47.30;28.15;;;;;;;;;;6212702;23;20035;-77
2022/01/27 09:05:36;;;;;;;58.72;32.90;;;;;;;;;;6213879;23;19996;-75
2022/01/27 09:08:03;;;;;;;53.53;32.30;;;;;;;;;;6187308;23;20062;-76
2022/01/27 09:10:32;;;;;;;50.25;30.05;;;;;;;;;;6214108;23;20000;-76
2022/01/27 09:13:01;;;;;;;39.80;25.55;;;;;;;;;;6213508;23;20019;-77
2022/01/27 09:15:28;;;;;;;33.67;21.50;;;;;;;;;;6185564;23;20004;-75
2022/01/27 09:17:56;;;;;;;30.85;21.75;;;;;;;;;;6213715;23;20004;-73
2022/01/27 09:20:22;;;;;;;31.50;20.48;;;;;;;;;;6186887;23;20428;-76
2022/01/27 09:22:51;;;;;;;35.22;22.33;;;;;;;;;;6213748;23;20047;-76
2022/01/27 09:25:21;;;;;;;30.85;19.50;;;;;;;;;;6187433;23;20035;-76
2022/01/27 09:27:48;;;;;;;30.05;17.17;;;;;;;;;;6213504;23;20009;-76
2022/01/27 09:30:17;;;;;;;30.83;17.77;;;103.20;2099.20;;;;;;6214009;23;19997;-77
2022/01/27 09:32:44;;;;;;;24.40;16.42;;;103.20;2227.20;;;;;;6186951;23;20000;-77
2022/01/27 09:35:10;;;;;;;32.58;17.95;;;103.20;2073.60;;;;;;6215808;23;20076;-77
2022/01/27 09:37:35;;;;;;;28.45;18.60;;;128.00;2099.20;;;;;;6189291;23;20032;-75
2022/01/27 09:40:02;;;;;;;27.05;17.23;;;103.20;2048.00;;;;;;6189116;23;20349;-74
2022/01/27 09:42:31;;;;;;;29.98;19.60;;;103.30;2073.60;;;;;;6188774;23;20010;-76
2022/01/27 09:44:59;;;;;;;33.70;21.48;;;;;;;;;;6188225;23;20413;-76
2022/01/27 09:47:29;;;;;;;26.65;17.73;;;;;;;;;;6214506;23;20005;-76
2022/01/27 09:50:06;;;;;;;31.85;19.70;;;;;;;;;;6188661;23;20078;-76
2022/01/27 09:52:32;;;;;;;31.25;21.70;;;;;;;;;;6215862;23;20000;-76
2022/01/27 09:54:58;;;;;;;27.58;18.05;;;;;;;;;;6188825;23;20004;-77
2022/01/27 12:22:43;;;;;;;39.15;32.30;;;;;;;;;;6152687;23;20028;-96
2022/01/27 12:25:10;;;;;;;43.00;31.73;;;;;;;;;;6176287;23;20016;-76
2022/01/27 12:27:36;;;;;;;42.13;31.38;;;;;;;;;;6211823;23;20084;-77
2022/01/27 12:30:04;;;;;;;63.42;41.90;;;;;;;;;;6186795;23;20077;-75
2022/01/27 12:32:31;;;;;;;57.83;42.65;;;;;;;;;;6186900;23;20001;-75
2022/01/27 12:34:59;;;;;;;57.60;41.15;;;;;;;;;;6186718;23;20008;-76
2022/01/27 12:37:35;;;;;;;50.83;36.72;;;;;;;;;;6213717;23;19996;-77
2022/01/27 12:40:03;;;;;;;44.85;33.85;;;;;;;;;;6214156;23;20016;-75
2022/01/27 12:42:35;;;;;;;62.80;46.72;;;;;;;;;;6214074;23;20004;-75
2022/01/27 12:45:03;;;;;;;59.20;41.67;;;;;;;;;;6187417;23;20008;-76
2022/01/27 12:47:31;;;;;;;53.47;38.70;;;;;;;;;;6187389;23;20001;-76
2022/01/27 12:50:06;;;;;;;48.35;35.65;;;;;;;;;;6214022;23;20021;-77
2022/01/27 12:52:37;;;;;;;45.00;31.35;;;;;;;;;;6186986;23;20079;-76
2022/01/27 12:55:04;;;;;;;50.15;37.50;;;;;;;;;;6187043;23;20001;-77
2022/01/27 12:57:32;;;;;;;44.03;31.73;;;;;;;;;;6187081;23;20000;-77
2022/01/27 12:59:58;;;;;;;42.83;33.17;;;;;;;;;;6213901;23;19997;-77
2022/01/27 13:02:26;;;;;;;51.50;36.03;;;;;;;;;;6187208;23;20012;-76
2022/01/27 13:04:55;;;;;;;49.53;35.08;;;;;;;;;;6213792;23;19997;-76
2022/01/27 13:07:22;;;;;;;48.03;33.38;;;;;;;;;;6187179;23;20001;-76
2022/01/27 13:10:03;;;;;;;51.75;35.53;;;;;;;;;;6189380;23;20494;-77
2022/01/27 13:12:52;;;;;;;43.85;32.83;;;;;;;;;;6189467;23;20005;-76
2022/01/27 13:15:20;;;;;;;47.55;35.55;;;;;;;;;;6189263;23;20005;-78
2022/01/27 13:17:55;;;;;;;47.70;31.75;;;;;;;;;;6189495;23;20039;-75
2022/01/27 13:20:30;;;;;;;41.97;33.00;;;;;;;;;;6215799;23;20005;-75
2022/01/27 13:23:04;;;;;;;47.03;34.47;;;;;;;;;;6189224;23;20005;-78
2022/01/27 13:25:39;;;;;;;43.17;30.67;;;;;;;;;;6218217;23;20012;-77
2022/01/27 13:28:18;;;;;;;48.90;33.03;;;;;;;;;;6189137;23;20024;-77
2022/01/27 13:30:45;;;;;;;38.25;29.50;;;;;;;;;;6188371;23;20040;-74
2022/01/27 13:33:15;;;;;;;43.88;35.10;;;;;;;;;;6188891;23;20490;-75
2022/01/27 13:35:42;;;;;;;47.53;37.38;;;;;;;;;;6215807;23;20024;-75
2022/01/27 13:38:19;;;;;;;37.28;31.55;;;;;;;;;;6215304;23;20048;-77
2022/01/27 13:43:40;;;;;;;46.05;33.45;;;;;;;;;;6215511;23;20387;-80
2022/01/27 13:46:07;;;;;;;46.20;32.30;;;;;;;;;;6189118;23;20000;-76
2022/01/27 13:48:42;;;;;;;40.03;30.40;;;;;;;;;;6215799;23;20455;-76
2022/01/27 13:51:08;;;;;;;39.67;29.38;;;;;;;;;;6189037;23;20004;-77
2022/01/27 13:53:34;;;;;;;42.75;33.33;;;;;;;;;;6214946;23;20020;-79
2022/01/27 13:56:04;;;;;;;42.45;32.50;;;;;;;;;;6188446;23;20385;-78
2022/01/27 13:58:30;;;;;;;71.88;48.45;;;;;;;;;;6188465;23;20063;-76
2022/01/27 14:01:13;;;;;;;44.88;31.45;;;;;;;;;;6216584;23;20004;-78
2022/01/27 14:03:47;;;;;;;39.88;28.77;;;;;;;;;;6188209;23;20011;-79
2022/01/27 14:06:13;;;;;;;41.58;28.85;;;;;;;;;;6214358;23;20005;-77
2022/01/27 14:08:39;;;;;;;44.55;33.17;;;;;;;;;;6188069;23;20013;-79
2022/01/27 14:11:06;;;;;;;55.53;39.25;;;;;;;;;;6214682;23;19996;-79
2022/01/27 14:13:32;;;;;;;55.45;42.00;;;;;;;;;;6188691;23;20005;-82
2022/01/27 14:15:58;;;;;;;53.53;41.40;;;;;;;;;;6188447;23;20122;-76
2022/01/27 14:18:25;;;;;;;47.33;31.42;;;;;;;;;;6188240;23;20379;-77
2022/01/27 14:20:54;;;;;;;44.90;34.92;;;;;;;;;;6188407;23;20427;-77
2022/01/27 14:23:30;;;;;;;50.28;34.55;;;;;;;;;;6188395;23;20423;-79
2022/01/27 14:26:00;;;;;;;115.63;74.60;;;;;;;;;;6214957;23;20008;-78
2022/01/27 14:28:26;;;;;;;117.25;86.50;;;;;;;;;;6189965;23;20423;-77
2022/01/27 14:30:52;;;;;;;122.05;96.72;;;;;;;;;;6188422;23;19993;-77
2022/01/27 14:33:18;;;;;;;65.70;51.63;;;;;;;;;;6188195;23;20363;-79
2022/01/27 14:35:44;;;;;;;51.10;42.30;;;;;;;;;;6188366;23;20363;-78
2022/01/27 14:38:11;;;;;;;41.25;35.53;;;;;;;;;;6188353;23;20088;-78
2022/01/27 14:40:39;;;;;;;50.83;41.03;;;;;;;;;;6215110;23;20071;-75
2022/01/27 14:43:05;;;;;;;61.63;42.72;;;;;;;;;;6188293;23;20096;-77
2022/01/27 14:45:31;;;;;;;50.22;37.35;;;;;;;;;;6188334;23;20137;-77
2022/01/27 14:48:03;;;;;;;49.08;40.92;;;;;;;;;;6188295;23;20012;-79
2022/01/27 14:50:29;;;;;;;72.40;54.72;;;;;;;;;;6188278;23;19996;-76
2022/01/27 14:52:57;;;;;;;62.63;47.00;;;;;;;;;;6188271;23;20339;-77
2022/01/27 14:55:23;;;;;;;72.43;54.42;;;;;;;;;;6187996;23;20001;-76
2022/01/27 14:57:50;;;;;;;69.57;52.45;;;;;;;;;;6214721;23;19996;-77
2022/01/27 15:00:17;;;;;;;63.30;48.53;;;;;;;;;;6186958;23;20008;-78
2022/01/27 15:02:43;;;;;;;81.22;58.53;;;;;;;;;;6214343;23;20004;-78
2022/01/27 15:05:09;;;;;;;69.10;49.95;;;;;;;;;;6187665;23;20011;-79
2022/01/27 15:07:37;;;;;;;65.32;43.83;;;;;;;;;;6213945;23;20332;-78
2022/01/27 15:10:04;;;;;;;63.15;43.67;;;;;;;;;;6186880;23;20004;-77
2022/01/27 15:12:30;;;;;;;63.72;43.00;;;;;;;;;;6214550;23;19992;-78
2022/01/27 15:20:27;;;;;;;85.32;55.25;;;;;;;;;;6214076;23;20494;-79
2022/01/27 15:22:54;;;;;;;84.20;55.88;;;;;;;;;;6187118;23;20016;-79
2022/01/27 15:25:23;;;;;;;86.80;59.92;;;;;;;;;;6187040;23;20028;-78
2022/01/27 15:27:49;;;;;;;93.07;62.90;;;;;;;;;;6188598;23;20036;-79
2022/01/27 15:30:15;;;;;;;102.53;66.25;;;;;;;;;;6188646;23;20008;-78
2022/01/27 15:32:42;;;;;;;103.05;69.65;;;;;;;;;;6186312;23;20070;-80
2022/01/27 15:35:11;;;;;;;94.55;65.65;;;;;;;;;;6187994;23;20004;-80
2022/01/27 15:37:43;;;;;;;102.72;65.07;;;;;;;;;;6186895;23;20001;-79
2022/01/27 15:40:11;;;;;;;104.80;68.47;;;;;;;;;;6187233;23;20007;-79
2022/01/27 15:42:37;;;;;;;101.60;64.85;;;;;;;;;;6187616;23;20012;-80
2022/01/27 15:45:03;;;;;;;141.68;87.35;;;;;;;;;;6188201;23;20040;-79
2022/01/27 15:47:29;;;;;;;142.40;86.78;;;;;;;;;;6188267;23;20451;-79
2022/01/27 15:49:56;;;;;;;122.78;75.85;;;;;;;;;;6187230;23;20092;-81
2022/01/27 15:52:27;;;;;;;134.77;82.93;;;;;;;;;;6188368;23;20011;-80
2022/01/27 15:54:53;;;;;;;112.68;73.47;;;;;;;;;;6188208;23;20007;-80
2022/01/27 15:57:19;;;;;;;225.85;119.93;;;;;;;;;;6188228;23;20000;-81
2022/01/27 15:59:49;;;;;;;199.27;110.68;;;;;;;;;;6187996;23;20005;-81
2022/01/27 16:02:15;;;;;;;162.30;101.22;;;;;;;;;;6186937;23;19997;-81
2022/01/27 16:04:41;;;;;;;160.75;102.38;;;;;;;;;;6187896;23;20362;-80
2022/01/27 16:07:08;;;;;;;144.02;96.03;;;;;;;;;;6188187;23;20008;-80
2022/01/27 16:09:34;;;;;;;138.65;92.32;;;;;;;;;;6187968;23;20019;-80
2022/01/27 16:12:00;;;;;;;165.70;109.32;;;;;;;;;;6187990;23;20005;-79
2022/01/27 16:14:26;;;;;;;170.23;111.32;;;;;;;;;;6188126;23;20004;-81
2022/01/27 16:16:53;;;;;;;167.52;109.30;;;;;;;;;;6213946;23;19992;-80
2022/01/27 16:19:19;;;;;;;184.65;120.25;;;;;;;;;;6187404;23;20087;-78
2022/01/27 16:21:45;;;;;;;172.20;114.28;;;;;;;;;;6187554;23;20332;-77
2022/01/27 16:24:12;;;;;;;193.57;125.63;;;;;;;;;;6188135;23;20092;-82
2022/01/27 16:26:38;;;;;;;219.80;141.35;;;;;;;;;;6188374;23;20005;-80
2022/01/27 16:29:04;;;;;;;257.08;152.20;;;;;;;;;;6187617;23;20436;-80
2022/01/27 16:31:31;;;;;;;241.63;163.93;;;;;;;;;;6187748;23;20007;-82
2022/01/27 16:33:57;;;;;;;253.65;170.55;;;;;;;;;;6214105;23;20069;-83
2022/01/27 16:36:23;;;;;;;208.02;141.80;;;;;;;;;;6187318;23;20001;-80
2022/01/27 16:38:49;;;;;;;236.82;148.25;;;;;;;;;;6186577;23;20443;-82
2022/01/27 16:41:15;;;;;;;260.95;182.57;;;;;;;;;;6187970;23;20008;-80
2022/01/27 16:43:41;;;;;;;211.43;132.30;;;;;;;;;;6186474;23;20005;-80
2022/01/27 16:46:09;;;;;;;236.73;148.73;;;;;;;;;;6186484;23;20004;-76
2022/01/27 16:48:35;;;;;;;323.73;215.55;;;;;;;;;;6186617;23;20467;-77
2022/01/27 16:51:01;;;;;;;322.92;214.68;;;;;;;;;;6186615;23;20001;-80
2022/01/27 16:53:27;;;;;;;456.67;301.48;;;;;;;;;;6213698;23;20000;-78
2022/01/27 16:55:54;;;;;;;440.48;269.20;;;;;;;;;;6214055;23;20432;-77
2022/01/27 16:58:20;;;;;;;460.13;290.50;;;;;;;;;;6187426;23;20008;-77
2022/01/27 17:00:46;;;;;;;360.17;226.25;;;;;;;;;;6187375;23;20024;-77
2022/01/27 17:03:12;;;;;;;361.45;219.82;;;;;;;;;;6214091;23;19997;-77
2022/01/27 17:05:38;;;;;;;407.65;250.77;;;;;;;;;;6186970;23;20001;-78
2022/01/27 17:08:05;;;;;;;365.33;223.60;;;;;;;;;;6183693;23;20017;-79
2022/01/27 17:10:31;;;;;;;440.63;279.77;;;;;;;;;;6186108;23;20036;-79